Känerkinden
Datum - Zeit
TemperaturTaupunktFeuchteSolar Wind aus Richtung WindböenLuftdruck (QFF)RegenRegenstärkeTrend
02.09.2026 - 00.00Uhr15.0 °C10.2 °C73 %0.0 W/m²0.0 km/hOsten0.0 km/h1019.7 hPa0.0 mm0.0 mm/hwechselhaft
02.09.2026 - 00.05Uhr14.9 °C10.1 °C73 %0.0 W/m²0.0 km/hOsten0.0 km/h1019.6 hPa0.0 mm0.0 mm/hwechselhaft
02.09.2026 - 00.10Uhr14.9 °C10.1 °C73 %0.0 W/m²0.0 km/hOsten0.0 km/h1019.6 hPa0.0 mm0.0 mm/hwechselhaft
02.09.2026 - 00.15Uhr15.1 °C10.3 °C73 %0.0 W/m²0.0 km/hOsten0.0 km/h1019.7 hPa0.0 mm0.0 mm/hwechselhaft
02.09.2026 - 00.20Uhr15.1 °C10.3 °C73 %0.0 W/m²0.0 km/hOsten0.0 km/h1019.7 hPa0.0 mm0.0 mm/hwechselhaft
02.09.2026 - 00.25Uhr15.1 °C10.2 °C73 %0.0 W/m²0.0 km/hOsten0.0 km/h1019.8 hPa0.0 mm0.0 mm/hwechselhaft
02.09.2026 - 00.30Uhr14.9 °C10.1 °C73 %0.0 W/m²0.0 km/hOsten0.0 km/h1019.7 hPa0.0 mm0.0 mm/hwechselhaft
02.09.2026 - 00.35Uhr14.9 °C10.2 °C73 %0.0 W/m²0.0 km/hOsten0.0 km/h1019.8 hPa0.0 mm0.0 mm/hwechselhaft
02.09.2026 - 00.40Uhr14.8 °C10.2 °C74 %0.0 W/m²0.0 km/hOsten0.0 km/h1019.8 hPa0.0 mm0.0 mm/hwechselhaft
02.09.2026 - 00.45Uhr14.4 °C10.1 °C76 %0.0 W/m²0.0 km/hOsten0.0 km/h1019.8 hPa0.0 mm0.0 mm/hwechselhaft
02.09.2026 - 00.50Uhr14.1 °C10.1 °C77 %0.0 W/m²0.0 km/hOsten0.0 km/h1019.8 hPa0.0 mm0.0 mm/hwechselhaft
02.09.2026 - 00.55Uhr14.0 °C10.0 °C77 %0.0 W/m²0.0 km/hOsten0.0 km/h1019.8 hPa0.0 mm0.0 mm/hwechselhaft
02.09.2026 - 01.00Uhr14.2 °C10.1 °C76 %0.0 W/m²0.0 km/hOsten0.0 km/h1019.9 hPa0.0 mm0.0 mm/hwechselhaft
02.09.2026 - 01.05Uhr14.4 °C10.1 °C75 %0.0 W/m²0.0 km/hOsten0.0 km/h1019.9 hPa0.0 mm0.0 mm/hwechselhaft
02.09.2026 - 01.10Uhr14.3 °C10.1 °C76 %0.0 W/m²0.0 km/hOsten0.0 km/h1019.9 hPa0.0 mm0.0 mm/hwechselhaft
02.09.2026 - 01.15Uhr14.4 °C10.0 °C75 %0.0 W/m²0.0 km/hOsten0.0 km/h1019.9 hPa0.0 mm0.0 mm/hwechselhaft
02.09.2026 - 01.20Uhr14.7 °C10.1 °C74 %0.0 W/m²0.0 km/hOsten0.0 km/h1019.8 hPa0.0 mm0.0 mm/hwechselhaft
02.09.2026 - 01.25Uhr14.6 °C10.1 °C74 %0.0 W/m²0.0 km/hOsten0.0 km/h1019.8 hPa0.0 mm0.0 mm/hwechselhaft
02.09.2026 - 01.30Uhr14.4 °C10.0 °C75 %0.0 W/m²0.0 km/hOsten0.0 km/h1019.8 hPa0.0 mm0.0 mm/hwechselhaft
02.09.2026 - 01.35Uhr14.2 °C10.0 °C76 %0.0 W/m²0.0 km/hOsten0.0 km/h1019.8 hPa0.0 mm0.0 mm/hwechselhaft
02.09.2026 - 01.40Uhr14.1 °C9.9 °C76 %0.0 W/m²0.0 km/hOsten0.0 km/h1019.8 hPa0.0 mm0.0 mm/hwechselhaft
02.09.2026 - 01.45Uhr14.1 °C9.9 °C76 %0.0 W/m²0.0 km/hOsten0.0 km/h1019.9 hPa0.0 mm0.0 mm/hwechselhaft
02.09.2026 - 01.50Uhr14.1 °C9.9 °C76 %0.0 W/m²0.0 km/hOsten0.0 km/h1019.9 hPa0.0 mm0.0 mm/hwechselhaft
02.09.2026 - 01.55Uhr14.2 °C9.9 °C76 %0.0 W/m²0.0 km/hOsten0.0 km/h1019.9 hPa0.0 mm0.0 mm/hwechselhaft
02.09.2026 - 02.00Uhr14.2 °C9.9 °C76 %0.0 W/m²0.0 km/hOsten0.0 km/h1019.9 hPa0.0 mm0.0 mm/hwechselhaft
02.09.2026 - 02.05Uhr14.0 °C9.8 °C76 %0.0 W/m²0.0 km/hOsten0.0 km/h1019.8 hPa0.0 mm0.0 mm/hwechselhaft
02.09.2026 - 02.10Uhr13.9 °C9.8 °C76 %0.0 W/m²0.0 km/hOsten0.0 km/h1019.9 hPa0.0 mm0.0 mm/hwechselhaft
02.09.2026 - 02.15Uhr13.9 °C9.8 °C76 %0.0 W/m²0.0 km/hOsten0.0 km/h1019.9 hPa0.0 mm0.0 mm/hwechselhaft
02.09.2026 - 02.20Uhr13.9 °C9.7 °C76 %0.0 W/m²0.0 km/hOsten0.0 km/h1019.9 hPa0.0 mm0.0 mm/hwechselhaft
02.09.2026 - 02.25Uhr13.9 °C9.7 °C76 %0.0 W/m²0.0 km/hOsten0.0 km/h1019.9 hPa0.0 mm0.0 mm/hwechselhaft
02.09.2026 - 02.30Uhr14.0 °C9.8 °C76 %0.0 W/m²0.0 km/hOsten0.0 km/h1019.8 hPa0.0 mm0.0 mm/hwechselhaft
02.09.2026 - 02.35Uhr13.9 °C9.8 °C76 %0.0 W/m²0.0 km/hOsten0.0 km/h1019.8 hPa0.0 mm0.0 mm/hwechselhaft
02.09.2026 - 02.40Uhr13.8 °C9.6 °C76 %0.0 W/m²0.0 km/hOsten0.0 km/h1019.8 hPa0.0 mm0.0 mm/hwechselhaft
02.09.2026 - 02.45Uhr13.8 °C9.6 °C76 %0.0 W/m²0.0 km/hOsten0.0 km/h1019.7 hPa0.0 mm0.0 mm/hwechselhaft
02.09.2026 - 02.50Uhr13.8 °C9.6 °C76 %0.0 W/m²0.0 km/hOsten0.0 km/h1019.7 hPa0.0 mm0.0 mm/hwechselhaft
02.09.2026 - 02.55Uhr13.7 °C9.6 °C77 %0.0 W/m²0.0 km/hOsten0.0 km/h1019.7 hPa0.0 mm0.0 mm/hwechselhaft
02.09.2026 - 03.00Uhr13.7 °C9.6 °C76 %0.0 W/m²0.0 km/hOsten0.0 km/h1019.6 hPa0.0 mm0.0 mm/hwechselhaft
02.09.2026 - 03.05Uhr13.8 °C9.7 °C76 %0.0 W/m²0.0 km/hOsten0.0 km/h1019.6 hPa0.0 mm0.0 mm/hwechselhaft
02.09.2026 - 03.10Uhr13.8 °C9.6 °C76 %0.0 W/m²0.0 km/hOsten0.0 km/h1019.6 hPa0.0 mm0.0 mm/hwechselhaft